sensor_id;sensor_type;location;lat;lon;timestamp;temperature;humidity
15844;DHT22;50807;52.436;13.346;2023-02-28T00:00:04;7.60;66.50
15844;DHT22;50807;52.436;13.346;2023-02-28T00:00:39;7.60;66.60
15844;DHT22;50807;52.436;13.346;2023-02-28T00:01:11;7.60;66.50
15844;DHT22;50807;52.436;13.346;2023-02-28T00:01:44;7.60;66.60
15844;DHT22;50807;52.436;13.346;2023-02-28T00:02:14;7.60;66.60
15844;DHT22;50807;52.436;13.346;2023-02-28T00:02:48;7.60;66.70
15844;DHT22;50807;52.436;13.346;2023-02-28T00:03:20;7.60;66.70
15844;DHT22;50807;52.436;13.346;2023-02-28T00:03:51;7.60;66.70
15844;DHT22;50807;52.436;13.346;2023-02-28T00:04:21;7.50;66.70
15844;DHT22;50807;52.436;13.346;2023-02-28T00:04:53;7.60;66.80
15844;DHT22;50807;52.436;13.346;2023-02-28T00:05:31;7.50;66.70
15844;DHT22;50807;52.436;13.346;2023-02-28T00:06:04;7.50;66.80
15844;DHT22;50807;52.436;13.346;2023-02-28T00:06:37;7.50;66.80
15844;DHT22;50807;52.436;13.346;2023-02-28T00:07:08;7.50;66.80
15844;DHT22;50807;52.436;13.346;2023-02-28T00:07:39;7.50;66.90
15844;DHT22;50807;52.436;13.346;2023-02-28T00:08:12;7.50;66.90
15844;DHT22;50807;52.436;13.346;2023-02-28T00:08:44;7.50;66.90
15844;DHT22;50807;52.436;13.346;2023-02-28T00:09:15;7.50;67.70
15844;DHT22;50807;52.436;13.346;2023-02-28T00:09:46;7.50;67.00
15844;DHT22;50807;52.436;13.346;2023-02-28T00:10:19;7.50;67.00
15844;DHT22;50807;52.436;13.346;2023-02-28T00:10:54;7.50;67.20
15844;DHT22;50807;52.436;13.346;2023-02-28T00:11:25;7.50;67.20
15844;DHT22;50807;52.436;13.346;2023-02-28T00:11:56;7.50;67.10
15844;DHT22;50807;52.436;13.346;2023-02-28T00:12:28;7.50;67.10
15844;DHT22;50807;52.436;13.346;2023-02-28T00:13:01;7.50;67.10
15844;DHT22;50807;52.436;13.346;2023-02-28T00:13:34;7.50;67.30
15844;DHT22;50807;52.436;13.346;2023-02-28T00:14:07;7.50;67.30
15844;DHT22;50807;52.436;13.346;2023-02-28T00:14:38;7.50;67.30
15844;DHT22;50807;52.436;13.346;2023-02-28T00:15:10;7.50;67.30
15844;DHT22;50807;52.436;13.346;2023-02-28T00:15:42;7.50;67.30
15844;DHT22;50807;52.436;13.346;2023-02-28T00:16:14;7.50;67.30
15844;DHT22;50807;52.436;13.346;2023-02-28T00:16:47;7.50;67.30
15844;DHT22;50807;52.436;13.346;2023-02-28T00:17:19;7.50;67.30
15844;DHT22;50807;52.436;13.346;2023-02-28T00:17:51;7.50;67.50
15844;DHT22;50807;52.436;13.346;2023-02-28T00:18:22;7.50;67.50
15844;DHT22;50807;52.436;13.346;2023-02-28T00:18:54;7.50;67.40
15844;DHT22;50807;52.436;13.346;2023-02-28T00:19:24;7.50;67.50
15844;DHT22;50807;52.436;13.346;2023-02-28T00:19:55;7.50;67.60
15844;DHT22;50807;52.436;13.346;2023-02-28T00:20:32;7.50;67.60
15844;DHT22;50807;52.436;13.346;2023-02-28T00:21:03;7.50;67.60
15844;DHT22;50807;52.436;13.346;2023-02-28T00:21:34;7.50;67.60
15844;DHT22;50807;52.436;13.346;2023-02-28T00:22:05;7.50;67.60
15844;DHT22;50807;52.436;13.346;2023-02-28T00:22:37;7.50;67.70
15844;DHT22;50807;52.436;13.346;2023-02-28T00:23:08;7.50;67.80
15844;DHT22;50807;52.436;13.346;2023-02-28T00:23:40;7.50;67.80
15844;DHT22;50807;52.436;13.346;2023-02-28T00:24:11;7.50;67.80
15844;DHT22;50807;52.436;13.346;2023-02-28T00:24:42;7.50;67.90
15844;DHT22;50807;52.436;13.346;2023-02-28T00:25:15;7.50;68.00
15844;DHT22;50807;52.436;13.346;2023-02-28T00:25:47;7.50;68.00
15844;DHT22;50807;52.436;13.346;2023-02-28T00:26:19;7.50;68.00
15844;DHT22;50807;52.436;13.346;2023-02-28T00:26:50;7.50;68.10
15844;DHT22;50807;52.436;13.346;2023-02-28T00:27:22;7.50;68.10
15844;DHT22;50807;52.436;13.346;2023-02-28T00:27:52;7.50;68.10
15844;DHT22;50807;52.436;13.346;2023-02-28T00:28:24;7.50;68.10
15844;DHT22;50807;52.436;13.346;2023-02-28T00:28:55;7.50;68.10
15844;DHT22;50807;52.436;13.346;2023-02-28T00:29:27;7.50;68.20
15844;DHT22;50807;52.436;13.346;2023-02-28T00:29:58;7.50;68.20
15844;DHT22;50807;52.436;13.346;2023-02-28T00:30:29;7.50;68.20
15844;DHT22;50807;52.436;13.346;2023-02-28T00:31:01;7.50;68.30
15844;DHT22;50807;52.436;13.346;2023-02-28T00:31:31;7.50;68.20
15844;DHT22;50807;52.436;13.346;2023-02-28T00:32:03;7.50;68.30
15844;DHT22;50807;52.436;13.346;2023-02-28T00:32:35;7.50;68.30
15844;DHT22;50807;52.436;13.346;2023-02-28T00:33:06;7.50;68.20
15844;DHT22;50807;52.436;13.346;2023-02-28T00:33:37;7.50;68.30
15844;DHT22;50807;52.436;13.346;2023-02-28T00:34:08;7.50;68.30
15844;DHT22;50807;52.436;13.346;2023-02-28T00:34:39;7.50;68.30
15844;DHT22;50807;52.436;13.346;2023-02-28T00:35:11;7.50;68.40
15844;DHT22;50807;52.436;13.346;2023-02-28T00:35:43;7.60;68.40
15844;DHT22;50807;52.436;13.346;2023-02-28T00:36:16;7.50;68.30
15844;DHT22;50807;52.436;13.346;2023-02-28T00:36:47;7.50;68.30
15844;DHT22;50807;52.436;13.346;2023-02-28T00:37:20;7.50;68.30
15844;DHT22;50807;52.436;13.346;2023-02-28T00:37:50;7.50;68.40
15844;DHT22;50807;52.436;13.346;2023-02-28T00:38:21;7.50;68.40
15844;DHT22;50807;52.436;13.346;2023-02-28T00:38:53;7.60;68.40
15844;DHT22;50807;52.436;13.346;2023-02-28T00:39:24;7.50;68.40
15844;DHT22;50807;52.436;13.346;2023-02-28T00:39:55;7.50;68.50
15844;DHT22;50807;52.436;13.346;2023-02-28T00:40:26;7.60;68.50
15844;DHT22;50807;52.436;13.346;2023-02-28T00:40:57;7.60;68.50
15844;DHT22;50807;52.436;13.346;2023-02-28T00:41:36;7.50;68.40
15844;DHT22;50807;52.436;13.346;2023-02-28T00:42:07;7.50;68.50
15844;DHT22;50807;52.436;13.346;2023-02-28T00:42:38;7.60;68.60
15844;DHT22;50807;52.436;13.346;2023-02-28T00:43:10;7.50;68.50
15844;DHT22;50807;52.436;13.346;2023-02-28T00:43:41;7.50;68.40
15844;DHT22;50807;52.436;13.346;2023-02-28T00:44:12;7.60;68.50
15844;DHT22;50807;52.436;13.346;2023-02-28T00:44:45;7.50;68.50
15844;DHT22;50807;52.436;13.346;2023-02-28T00:45:16;7.50;68.50
15844;DHT22;50807;52.436;13.346;2023-02-28T00:45:46;7.50;68.50
15844;DHT22;50807;52.436;13.346;2023-02-28T00:46:18;7.50;68.60
15844;DHT22;50807;52.436;13.346;2023-02-28T00:46:49;7.50;68.60
15844;DHT22;50807;52.436;13.346;2023-02-28T00:47:19;7.50;69.40
15844;DHT22;50807;52.436;13.346;2023-02-28T00:47:51;7.50;68.60
15844;DHT22;50807;52.436;13.346;2023-02-28T00:48:22;7.50;68.70
15844;DHT22;50807;52.436;13.346;2023-02-28T00:48:53;7.50;68.70
15844;DHT22;50807;52.436;13.346;2023-02-28T00:49:24;7.50;68.70
15844;DHT22;50807;52.436;13.346;2023-02-28T00:49:56;7.50;68.80
15844;DHT22;50807;52.436;13.346;2023-02-28T00:50:27;7.50;68.80
15844;DHT22;50807;52.436;13.346;2023-02-28T00:50:59;7.50;68.70
15844;DHT22;50807;52.436;13.346;2023-02-28T00:51:29;7.50;68.80
15844;DHT22;50807;52.436;13.346;2023-02-28T00:52:01;7.50;68.80
15844;DHT22;50807;52.436;13.346;2023-02-28T00:52:33;7.50;68.90
15844;DHT22;50807;52.436;13.346;2023-02-28T00:53:04;7.50;68.90
15844;DHT22;50807;52.436;13.346;2023-02-28T00:53:36;7.50;68.80
15844;DHT22;50807;52.436;13.346;2023-02-28T00:54:07;7.50;68.80
15844;DHT22;50807;52.436;13.346;2023-02-28T00:54:37;7.50;68.90
15844;DHT22;50807;52.436;13.346;2023-02-28T00:55:09;7.50;68.90
15844;DHT22;50807;52.436;13.346;2023-02-28T00:55:40;7.50;68.90
15844;DHT22;50807;52.436;13.346;2023-02-28T00:56:11;7.50;69.00
15844;DHT22;50807;52.436;13.346;2023-02-28T00:56:45;7.50;69.00
15844;DHT22;50807;52.436;13.346;2023-02-28T00:57:16;7.50;69.00
15844;DHT22;50807;52.436;13.346;2023-02-28T00:57:47;7.50;69.00
15844;DHT22;50807;52.436;13.346;2023-02-28T00:58:18;7.50;69.00
15844;DHT22;50807;52.436;13.346;2023-02-28T00:58:49;7.50;69.10
15844;DHT22;50807;52.436;13.346;2023-02-28T00:59:20;7.50;69.10
15844;DHT22;50807;52.436;13.346;2023-02-28T00:59:52;7.50;69.10
15844;DHT22;50807;52.436;13.346;2023-02-28T01:00:24;7.50;69.10
15844;DHT22;50807;52.436;13.346;2023-02-28T01:00:55;7.50;69.10
15844;DHT22;50807;52.436;13.346;2023-02-28T01:01:27;7.50;69.20
15844;DHT22;50807;52.436;13.346;2023-02-28T01:01:57;7.50;69.20
15844;DHT22;50807;52.436;13.346;2023-02-28T01:02:29;7.50;69.30
15844;DHT22;50807;52.436;13.346;2023-02-28T01:03:00;7.50;70.00
15844;DHT22;50807;52.436;13.346;2023-02-28T01:03:31;7.50;69.20
15844;DHT22;50807;52.436;13.346;2023-02-28T01:04:02;7.50;69.30
15844;DHT22;50807;52.436;13.346;2023-02-28T01:04:35;7.50;69.40
15844;DHT22;50807;52.436;13.346;2023-02-28T01:05:06;7.50;69.40
15844;DHT22;50807;52.436;13.346;2023-02-28T01:05:37;7.50;69.40
15844;DHT22;50807;52.436;13.346;2023-02-28T01:06:09;7.50;69.40
15844;DHT22;50807;52.436;13.346;2023-02-28T01:06:40;7.50;69.40
15844;DHT22;50807;52.436;13.346;2023-02-28T01:07:11;7.50;69.40
15844;DHT22;50807;52.436;13.346;2023-02-28T01:07:44;7.50;69.50
15844;DHT22;50807;52.436;13.346;2023-02-28T01:08:15;7.50;69.40
15844;DHT22;50807;52.436;13.346;2023-02-28T01:08:46;7.50;69.50
15844;DHT22;50807;52.436;13.346;2023-02-28T01:09:17;7.50;69.50
15844;DHT22;50807;52.436;13.346;2023-02-28T01:09:49;7.50;69.50
15844;DHT22;50807;52.436;13.346;2023-02-28T01:10:20;7.50;69.50
15844;DHT22;50807;52.436;13.346;2023-02-28T01:10:51;7.40;69.60
15844;DHT22;50807;52.436;13.346;2023-02-28T01:11:23;7.50;69.60
15844;DHT22;50807;52.436;13.346;2023-02-28T01:11:55;7.50;69.60
15844;DHT22;50807;52.436;13.346;2023-02-28T01:12:26;7.40;69.60
15844;DHT22;50807;52.436;13.346;2023-02-28T01:12:57;7.40;69.60
15844;DHT22;50807;52.436;13.346;2023-02-28T01:13:28;7.50;69.60
15844;DHT22;50807;52.436;13.346;2023-02-28T01:13:59;7.40;69.60
15844;DHT22;50807;52.436;13.346;2023-02-28T01:14:31;7.40;69.60
15844;DHT22;50807;52.436;13.346;2023-02-28T01:15:02;7.40;69.60
15844;DHT22;50807;52.436;13.346;2023-02-28T01:15:34;7.40;69.70
15844;DHT22;50807;52.436;13.346;2023-02-28T01:16:06;7.40;69.60
15844;DHT22;50807;52.436;13.346;2023-02-28T01:16:37;7.40;69.70
15844;DHT22;50807;52.436;13.346;2023-02-28T01:17:08;7.40;69.70
15844;DHT22;50807;52.436;13.346;2023-02-28T01:17:40;7.40;69.80
15844;DHT22;50807;52.436;13.346;2023-02-28T01:18:11;7.40;69.80
15844;DHT22;50807;52.436;13.346;2023-02-28T01:18:42;7.40;69.80
15844;DHT22;50807;52.436;13.346;2023-02-28T01:19:14;7.40;69.80
15844;DHT22;50807;52.436;13.346;2023-02-28T01:19:45;7.40;69.80
15844;DHT22;50807;52.436;13.346;2023-02-28T01:20:16;7.40;69.80
15844;DHT22;50807;52.436;13.346;2023-02-28T01:20:49;7.40;69.80
15844;DHT22;50807;52.436;13.346;2023-02-28T01:21:22;7.40;69.80
15844;DHT22;50807;52.436;13.346;2023-02-28T01:21:53;7.40;69.80
15844;DHT22;50807;52.436;13.346;2023-02-28T01:22:25;7.40;69.80
15844;DHT22;50807;52.436;13.346;2023-02-28T01:22:56;7.40;69.80
15844;DHT22;50807;52.436;13.346;2023-02-28T01:23:27;7.40;69.80
15844;DHT22;50807;52.436;13.346;2023-02-28T01:23:58;7.40;69.90
15844;DHT22;50807;52.436;13.346;2023-02-28T01:24:29;7.40;69.90
15844;DHT22;50807;52.436;13.346;2023-02-28T01:25:00;7.30;69.80
15844;DHT22;50807;52.436;13.346;2023-02-28T01:25:34;7.40;69.90
15844;DHT22;50807;52.436;13.346;2023-02-28T01:26:05;7.40;69.90
15844;DHT22;50807;52.436;13.346;2023-02-28T01:26:36;7.30;69.90
15844;DHT22;50807;52.436;13.346;2023-02-28T01:27:09;7.40;70.00
15844;DHT22;50807;52.436;13.346;2023-02-28T01:27:40;7.30;70.00
15844;DHT22;50807;52.436;13.346;2023-02-28T01:28:11;7.30;69.90
15844;DHT22;50807;52.436;13.346;2023-02-28T01:28:43;7.30;70.00
15844;DHT22;50807;52.436;13.346;2023-02-28T01:29:14;7.30;70.00
15844;DHT22;50807;52.436;13.346;2023-02-28T01:29:45;7.30;70.00
15844;DHT22;50807;52.436;13.346;2023-02-28T01:30:17;7.30;70.00
15844;DHT22;50807;52.436;13.346;2023-02-28T01:30:48;7.30;70.00
15844;DHT22;50807;52.436;13.346;2023-02-28T01:31:20;7.20;70.00
15844;DHT22;50807;52.436;13.346;2023-02-28T01:31:52;7.20;70.10
15844;DHT22;50807;52.436;13.346;2023-02-28T01:32:23;7.30;70.10
15844;DHT22;50807;52.436;13.346;2023-02-28T01:32:54;7.20;70.10
15844;DHT22;50807;52.436;13.346;2023-02-28T01:33:26;7.20;70.10
15844;DHT22;50807;52.436;13.346;2023-02-28T01:33:57;7.20;70.10
15844;DHT22;50807;52.436;13.346;2023-02-28T01:34:28;7.20;70.10
15844;DHT22;50807;52.436;13.346;2023-02-28T01:34:59;7.20;70.10
15844;DHT22;50807;52.436;13.346;2023-02-28T01:35:32;7.20;70.20
15844;DHT22;50807;52.436;13.346;2023-02-28T01:36:06;7.20;70.20
15844;DHT22;50807;52.436;13.346;2023-02-28T01:36:39;7.20;70.30
15844;DHT22;50807;52.436;13.346;2023-02-28T01:37:10;7.20;70.20
15844;DHT22;50807;52.436;13.346;2023-02-28T01:37:42;7.10;70.20
15844;DHT22;50807;52.436;13.346;2023-02-28T01:38:12;7.10;70.20
15844;DHT22;50807;52.436;13.346;2023-02-28T01:38:44;7.20;70.30
15844;DHT22;50807;52.436;13.346;2023-02-28T01:39:16;7.10;70.30
15844;DHT22;50807;52.436;13.346;2023-02-28T01:39:47;7.10;70.30
15844;DHT22;50807;52.436;13.346;2023-02-28T01:40:18;7.10;70.30
15844;DHT22;50807;52.436;13.346;2023-02-28T01:40:50;7.10;70.40
15844;DHT22;50807;52.436;13.346;2023-02-28T01:41:22;7.10;70.40
15844;DHT22;50807;52.436;13.346;2023-02-28T01:41:55;7.10;70.50
15844;DHT22;50807;52.436;13.346;2023-02-28T01:42:28;7.10;71.20
15844;DHT22;50807;52.436;13.346;2023-02-28T01:42:59;7.10;70.50
15844;DHT22;50807;52.436;13.346;2023-02-28T01:43:31;7.10;70.50
15844;DHT22;50807;52.436;13.346;2023-02-28T01:45:34;7.10;70.70
15844;DHT22;50807;52.436;13.346;2023-02-28T01:46:06;7.10;70.50
15844;DHT22;50807;52.436;13.346;2023-02-28T01:46:36;7.10;70.30
15844;DHT22;50807;52.436;13.346;2023-02-28T01:47:08;7.00;71.00
15844;DHT22;50807;52.436;13.346;2023-02-28T01:47:41;7.00;70.30
15844;DHT22;50807;52.436;13.346;2023-02-28T01:48:14;7.00;70.40
15844;DHT22;50807;52.436;13.346;2023-02-28T01:48:50;7.00;70.40
15844;DHT22;50807;52.436;13.346;2023-02-28T01:49:23;7.00;70.50
15844;DHT22;50807;52.436;13.346;2023-02-28T01:49:54;7.00;70.50
15844;DHT22;50807;52.436;13.346;2023-02-28T01:50:29;7.00;70.60
15844;DHT22;50807;52.436;13.346;2023-02-28T01:51:08;7.00;70.70
15844;DHT22;50807;52.436;13.346;2023-02-28T01:51:43;6.90;70.70
15844;DHT22;50807;52.436;13.346;2023-02-28T01:52:22;6.90;70.70
15844;DHT22;50807;52.436;13.346;2023-02-28T01:52:57;6.90;70.80
15844;DHT22;50807;52.436;13.346;2023-02-28T01:53:35;6.90;70.80
15844;DHT22;50807;52.436;13.346;2023-02-28T01:54:14;6.90;70.90
15844;DHT22;50807;52.436;13.346;2023-02-28T01:54:51;6.90;70.90
15844;DHT22;50807;52.436;13.346;2023-02-28T01:55:24;6.90;70.90
15844;DHT22;50807;52.436;13.346;2023-02-28T01:55:59;6.90;70.90
15844;DHT22;50807;52.436;13.346;2023-02-28T01:56:34;6.80;70.90
15844;DHT22;50807;52.436;13.346;2023-02-28T01:57:10;6.80;71.70
15844;DHT22;50807;52.436;13.346;2023-02-28T01:57:50;6.90;71.10
15844;DHT22;50807;52.436;13.346;2023-02-28T01:58:24;6.80;71.10
15844;DHT22;50807;52.436;13.346;2023-02-28T01:58:56;6.80;71.00
15844;DHT22;50807;52.436;13.346;2023-02-28T01:59:31;6.80;71.00
15844;DHT22;50807;52.436;13.346;2023-02-28T02:00:08;6.80;71.20
15844;DHT22;50807;52.436;13.346;2023-02-28T02:00:44;6.80;71.20
15844;DHT22;50807;52.436;13.346;2023-02-28T02:01:17;6.80;71.10
15844;DHT22;50807;52.436;13.346;2023-02-28T02:01:52;6.80;71.30
15844;DHT22;50807;52.436;13.346;2023-02-28T02:02:25;6.80;71.30
15844;DHT22;50807;52.436;13.346;2023-02-28T02:02:59;6.70;71.30
15844;DHT22;50807;52.436;13.346;2023-02-28T02:03:35;6.80;71.50
15844;DHT22;50807;52.436;13.346;2023-02-28T02:04:07;6.70;71.40
15844;DHT22;50807;52.436;13.346;2023-02-28T02:04:41;6.80;71.40
15844;DHT22;50807;52.436;13.346;2023-02-28T02:05:23;6.70;71.50
15844;DHT22;50807;52.436;13.346;2023-02-28T02:05:56;6.70;71.40
15844;DHT22;50807;52.436;13.346;2023-02-28T02:06:30;6.70;71.40
15844;DHT22;50807;52.436;13.346;2023-02-28T02:07:05;6.70;71.50
15844;DHT22;50807;52.436;13.346;2023-02-28T02:07:37;6.70;71.50
15844;DHT22;50807;52.436;13.346;2023-02-28T02:08:13;6.70;71.60
15844;DHT22;50807;52.436;13.346;2023-02-28T02:08:48;6.70;71.70
15844;DHT22;50807;52.436;13.346;2023-02-28T02:09:18;6.70;71.70
15844;DHT22;50807;52.436;13.346;2023-02-28T02:09:49;6.70;71.70
15844;DHT22;50807;52.436;13.346;2023-02-28T02:10:26;6.70;71.70
15844;DHT22;50807;52.436;13.346;2023-02-28T02:11:00;6.70;71.90
15844;DHT22;50807;52.436;13.346;2023-02-28T02:11:32;6.60;71.80
15844;DHT22;50807;52.436;13.346;2023-02-28T02:12:15;6.70;72.00
15844;DHT22;50807;52.436;13.346;2023-02-28T02:13:04;6.60;72.00
15844;DHT22;50807;52.436;13.346;2023-02-28T02:13:54;6.60;72.00
15844;DHT22;50807;52.436;13.346;2023-02-28T02:14:47;6.70;72.00
15844;DHT22;50807;52.436;13.346;2023-02-28T02:15:32;6.70;71.90
15844;DHT22;50807;52.436;13.346;2023-02-28T02:16:15;6.60;71.70
15844;DHT22;50807;52.436;13.346;2023-02-28T02:17:12;6.70;72.50
15844;DHT22;50807;52.436;13.346;2023-02-28T02:17:52;6.70;71.70
15844;DHT22;50807;52.436;13.346;2023-02-28T02:18:33;6.70;71.60
15844;DHT22;50807;52.436;13.346;2023-02-28T02:19:29;6.70;71.60
15844;DHT22;50807;52.436;13.346;2023-02-28T02:20:45;6.70;71.60
15844;DHT22;50807;52.436;13.346;2023-02-28T02:22:09;6.70;71.60
15844;DHT22;50807;52.436;13.346;2023-02-28T02:23:07;6.70;71.50
15844;DHT22;50807;52.436;13.346;2023-02-28T02:24:25;6.70;71.20
15844;DHT22;50807;52.436;13.346;2023-02-28T02:25:28;6.70;71.20
15844;DHT22;50807;52.436;13.346;2023-02-28T02:26:20;6.70;70.80
15844;DHT22;50807;52.436;13.346;2023-02-28T02:27:33;6.70;70.80
15844;DHT22;50807;52.436;13.346;2023-02-28T02:28:41;6.70;70.90
15844;DHT22;50807;52.436;13.346;2023-02-28T02:29:55;6.70;70.80
15844;DHT22;50807;52.436;13.346;2023-02-28T02:31:13;6.70;70.80
15844;DHT22;50807;52.436;13.346;2023-02-28T02:34:05;6.60;70.60
15844;DHT22;50807;52.436;13.346;2023-02-28T02:34:59;6.60;70.50
15844;DHT22;50807;52.436;13.346;2023-02-28T02:35:40;6.60;70.30
15844;DHT22;50807;52.436;13.346;2023-02-28T02:36:20;6.60;70.20
15844;DHT22;50807;52.436;13.346;2023-02-28T02:37:02;6.60;70.20
15844;DHT22;50807;52.436;13.346;2023-02-28T02:37:47;6.50;70.30
15844;DHT22;50807;52.436;13.346;2023-02-28T02:38:31;6.50;70.40
15844;DHT22;50807;52.436;13.346;2023-02-28T02:39:08;6.50;70.60
15844;DHT22;50807;52.436;13.346;2023-02-28T02:39:50;6.40;70.60
15844;DHT22;50807;52.436;13.346;2023-02-28T02:40:35;6.40;70.80
15844;DHT22;50807;52.436;13.346;2023-02-28T02:41:15;6.40;70.90
15844;DHT22;50807;52.436;13.346;2023-02-28T02:41:52;6.30;71.00
15844;DHT22;50807;52.436;13.346;2023-02-28T02:42:29;6.30;71.00
15844;DHT22;50807;52.436;13.346;2023-02-28T02:43:10;6.30;71.20
15844;DHT22;50807;52.436;13.346;2023-02-28T02:43:50;6.20;71.20
15844;DHT22;50807;52.436;13.346;2023-02-28T02:44:27;6.20;71.30
15844;DHT22;50807;52.436;13.346;2023-02-28T02:45:07;6.20;71.40
15844;DHT22;50807;52.436;13.346;2023-02-28T02:45:46;6.20;71.50
15844;DHT22;50807;52.436;13.346;2023-02-28T02:46:23;6.20;71.70
15844;DHT22;50807;52.436;13.346;2023-02-28T02:47:01;6.10;71.70
15844;DHT22;50807;52.436;13.346;2023-02-28T02:47:38;6.10;71.80
15844;DHT22;50807;52.436;13.346;2023-02-28T02:48:14;6.10;71.90
15844;DHT22;50807;52.436;13.346;2023-02-28T02:48:50;6.10;72.00
15844;DHT22;50807;52.436;13.346;2023-02-28T02:49:29;6.10;72.10
15844;DHT22;50807;52.436;13.346;2023-02-28T02:50:05;6.10;72.20
15844;DHT22;50807;52.436;13.346;2023-02-28T02:50:44;6.00;72.20
15844;DHT22;50807;52.436;13.346;2023-02-28T02:51:20;6.00;72.20
15844;DHT22;50807;52.436;13.346;2023-02-28T02:51:55;6.00;72.20
15844;DHT22;50807;52.436;13.346;2023-02-28T02:52:32;6.00;72.30
15844;DHT22;50807;52.436;13.346;2023-02-28T02:53:09;6.00;72.40
15844;DHT22;50807;52.436;13.346;2023-02-28T02:53:47;5.90;72.40
15844;DHT22;50807;52.436;13.346;2023-02-28T02:54:23;5.90;72.50
15844;DHT22;50807;52.436;13.346;2023-02-28T02:55:00;5.90;72.50
15844;DHT22;50807;52.436;13.346;2023-02-28T02:55:38;5.90;72.60
15844;DHT22;50807;52.436;13.346;2023-02-28T02:56:12;5.90;72.60
15844;DHT22;50807;52.436;13.346;2023-02-28T02:56:47;5.90;72.60
15844;DHT22;50807;52.436;13.346;2023-02-28T02:57:23;5.80;72.60
15844;DHT22;50807;52.436;13.346;2023-02-28T02:58:02;5.80;72.70
15844;DHT22;50807;52.436;13.346;2023-02-28T02:58:38;5.80;72.70
15844;DHT22;50807;52.436;13.346;2023-02-28T02:59:15;5.80;72.80
15844;DHT22;50807;52.436;13.346;2023-02-28T02:59:53;5.80;72.80
15844;DHT22;50807;52.436;13.346;2023-02-28T03:00:29;5.80;72.90
15844;DHT22;50807;52.436;13.346;2023-02-28T03:01:05;5.80;73.00
15844;DHT22;50807;52.436;13.346;2023-02-28T03:01:37;5.80;73.00
15844;DHT22;50807;52.436;13.346;2023-02-28T03:02:12;5.70;73.10
15844;DHT22;50807;52.436;13.346;2023-02-28T03:02:49;5.70;73.20
15844;DHT22;50807;52.436;13.346;2023-02-28T03:03:23;5.70;73.30
15844;DHT22;50807;52.436;13.346;2023-02-28T03:04:01;5.70;73.30
15844;DHT22;50807;52.436;13.346;2023-02-28T03:04:42;5.70;73.40
15844;DHT22;50807;52.436;13.346;2023-02-28T03:05:19;5.70;73.50
15844;DHT22;50807;52.436;13.346;2023-02-28T03:05:55;5.60;73.50
15844;DHT22;50807;52.436;13.346;2023-02-28T03:06:28;5.60;73.40
15844;DHT22;50807;52.436;13.346;2023-02-28T03:06:59;5.60;73.40
15844;DHT22;50807;52.436;13.346;2023-02-28T03:07:30;5.60;73.40
15844;DHT22;50807;52.436;13.346;2023-02-28T03:08:03;5.60;73.50
15844;DHT22;50807;52.436;13.346;2023-02-28T03:08:37;5.60;73.70
15844;DHT22;50807;52.436;13.346;2023-02-28T03:09:09;5.60;73.80
15844;DHT22;50807;52.436;13.346;2023-02-28T03:09:40;5.50;73.70
15844;DHT22;50807;52.436;13.346;2023-02-28T03:10:34;5.50;73.80
15844;DHT22;50807;52.436;13.346;2023-02-28T03:11:13;5.50;74.20
15844;DHT22;50807;52.436;13.346;2023-02-28T03:11:45;5.50;74.10
15844;DHT22;50807;52.436;13.346;2023-02-28T03:12:16;5.50;74.00
15844;DHT22;50807;52.436;13.346;2023-02-28T03:12:53;5.50;74.00
15844;DHT22;50807;52.436;13.346;2023-02-28T03:13:45;5.50;74.20
15844;DHT22;50807;52.436;13.346;2023-02-28T03:14:30;5.50;74.20
15844;DHT22;50807;52.436;13.346;2023-02-28T03:15:13;5.50;74.20
15844;DHT22;50807;52.436;13.346;2023-02-28T03:16:02;5.50;74.20
15844;DHT22;50807;52.436;13.346;2023-02-28T03:16:55;5.40;74.10
15844;DHT22;50807;52.436;13.346;2023-02-28T03:17:52;5.40;74.10
15844;DHT22;50807;52.436;13.346;2023-02-28T03:18:38;5.40;74.00
15844;DHT22;50807;52.436;13.346;2023-02-28T03:19:30;5.40;74.00
15844;DHT22;50807;52.436;13.346;2023-02-28T03:20:23;5.40;74.00
15844;DHT22;50807;52.436;13.346;2023-02-28T03:21:06;5.40;73.90
15844;DHT22;50807;52.436;13.346;2023-02-28T03:21:52;5.40;73.80
15844;DHT22;50807;52.436;13.346;2023-02-28T03:22:44;5.40;73.80
15844;DHT22;50807;52.436;13.346;2023-02-28T03:23:23;5.40;73.90
15844;DHT22;50807;52.436;13.346;2023-02-28T03:24:06;5.40;74.00
15844;DHT22;50807;52.436;13.346;2023-02-28T03:24:45;5.40;73.90
15844;DHT22;50807;52.436;13.346;2023-02-28T03:25:31;5.30;74.60
15844;DHT22;50807;52.436;13.346;2023-02-28T03:26:10;5.30;74.00
15844;DHT22;50807;52.436;13.346;2023-02-28T03:26:51;5.30;74.10
15844;DHT22;50807;52.436;13.346;2023-02-28T03:27:28;5.30;74.20
15844;DHT22;50807;52.436;13.346;2023-02-28T03:28:05;5.30;74.20
15844;DHT22;50807;52.436;13.346;2023-02-28T03:28:49;5.30;74.30
15844;DHT22;50807;52.436;13.346;2023-02-28T03:29:30;5.20;74.40
15844;DHT22;50807;52.436;13.346;2023-02-28T03:30:10;5.20;74.50
15844;DHT22;50807;52.436;13.346;2023-02-28T03:30:50;5.20;74.50
15844;DHT22;50807;52.436;13.346;2023-02-28T03:31:27;5.20;74.60
15844;DHT22;50807;52.436;13.346;2023-02-28T03:32:07;5.20;74.70
15844;DHT22;50807;52.436;13.346;2023-02-28T03:32:52;5.20;74.80
15844;DHT22;50807;52.436;13.346;2023-02-28T03:33:31;5.20;74.90
15844;DHT22;50807;52.436;13.346;2023-02-28T03:34:08;5.20;74.90
15844;DHT22;50807;52.436;13.346;2023-02-28T03:34:48;5.20;75.30
15844;DHT22;50807;52.436;13.346;2023-02-28T03:35:29;5.20;75.10
15844;DHT22;50807;52.436;13.346;2023-02-28T03:36:06;5.20;75.20
15844;DHT22;50807;52.436;13.346;2023-02-28T03:36:46;5.10;75.20
15844;DHT22;50807;52.436;13.346;2023-02-28T03:37:22;5.10;75.30
15844;DHT22;50807;52.436;13.346;2023-02-28T03:37:58;5.10;75.30
15844;DHT22;50807;52.436;13.346;2023-02-28T03:38:38;5.10;75.40
15844;DHT22;50807;52.436;13.346;2023-02-28T03:39:15;5.10;75.50
15844;DHT22;50807;52.436;13.346;2023-02-28T03:39:55;5.10;75.60
15844;DHT22;50807;52.436;13.346;2023-02-28T03:40:33;5.10;75.70
15844;DHT22;50807;52.436;13.346;2023-02-28T03:41:13;5.10;75.70
15844;DHT22;50807;52.436;13.346;2023-02-28T03:41:51;5.10;75.90
15844;DHT22;50807;52.436;13.346;2023-02-28T03:42:29;5.10;75.90
15844;DHT22;50807;52.436;13.346;2023-02-28T03:43:09;5.10;75.90
15844;DHT22;50807;52.436;13.346;2023-02-28T03:43:50;5.10;76.10
15844;DHT22;50807;52.436;13.346;2023-02-28T03:44:27;5.10;76.10
15844;DHT22;50807;52.436;13.346;2023-02-28T03:45:04;5.10;76.10
15844;DHT22;50807;52.436;13.346;2023-02-28T03:45:41;5.10;76.10
15844;DHT22;50807;52.436;13.346;2023-02-28T03:46:20;5.10;76.20
15844;DHT22;50807;52.436;13.346;2023-02-28T03:46:56;5.10;76.20
15844;DHT22;50807;52.436;13.346;2023-02-28T03:47:33;5.10;76.20
15844;DHT22;50807;52.436;13.346;2023-02-28T03:48:15;5.10;76.20
15844;DHT22;50807;52.436;13.346;2023-02-28T03:48:54;5.10;76.40
15844;DHT22;50807;52.436;13.346;2023-02-28T03:49:32;5.10;76.40